Corvallis, OR (97333)

3:26 PM PDT on August 31, 2016 (GMT -0700)
Near Starker Arts Park | | Change Station

Elev 250 ft 44.55 °N, 123.30 °W | Updated 14 seconds ago

Mostly Cloudy
Mostly Cloudy
66.1 °F
Feels Like 66.1 °F
N
5.0
Wind Variable Wind from NNW
Gusts 7.0 mph

Today
High -- | Low -- °F
--% Chance of Precip.
Yesterday
High -- | Low -- °F
Precip. -- in
Pressure 30.00 in
Visibility 10.0 miles
Clouds Few 3500 ft
Mostly Cloudy 4200 ft
Mostly Cloudy 8000 ft
Dew Point 62 °F
Humidity 85%
Rainfall 0.05 in
Snow Depth Not available.
6:35 AM 7:50 PM
Waning Crescent, 0% visible
METAR KEUG 312154Z 26011KT 10SM FEW035 BKN042 BKN080 23/14 A3000 RMK AO2 SLP159 T02330139
Pressure 30.00 in
Visibility 10.0 miles
Clouds Few 3500 ft
Mostly Cloudy 4200 ft
Mostly Cloudy 8000 ft
Dew Point 62 °F
Humidity 85%
Rainfall 0.05 in
Snow Depth Not available.
6:35 AM 7:50 PM
Waning Crescent, 0% visible
METAR KEUG 312154Z 26011KT 10SM FEW035 BKN042 BKN080 23/14 A3000 RMK AO2 SLP159 T02330139

10-Day Weather Forecast

Almanac

Astronomy

Aug. 31, 2016 Rise Set
Actual Time
Civil Twilight
Nautical Twilight
Astronomical Twilight
Moon
Length of Visible Light
Length of Day
Tomorrow will be .
, % of the Moon is Illuminated

Today's Extremes

State Highs State Lows

Community

WunderPhotos

Upload Photos

1,936,200 photos uploaded!

WunderBlog® & News

Nearby

Air Quality

  Air Quality AQ Index Pollutant
Not available.

Snow Depth

Station Depth Elevation

Earthquake Activity

City Distance Mag. Time & Date
Minimum magnitude displayed is 2.5.

Coastal Water Temperatures

Place Temperature

Stations

Nearby Weather Stations

Station Location Temp. Windchill Dew Point Humidity Wind Precip. Elev Updated Type
                   

Watches & Warnings

There are currently no watches in effect.